createdAt,value
2023-03-04T00:01:00.094Z,19.8
2023-03-04T00:06:36.898Z,19.8
2023-03-04T00:12:30.013Z,19.8
2023-03-04T00:18:09.682Z,19.8
2023-03-04T00:24:02.924Z,19.8
2023-03-04T00:29:40.079Z,19.8
2023-03-04T00:35:33.241Z,19.8
2023-03-04T00:41:25.964Z,19.8
2023-03-04T00:47:03.766Z,19.8
2023-03-04T00:52:24.764Z,19.8
2023-03-04T00:58:16.643Z,19.8
2023-03-04T01:03:54.601Z,19.8
2023-03-04T01:09:16.663Z,19.8
2023-03-04T01:14:53.961Z,19.8
2023-03-04T01:20:31.171Z,19.8
2023-03-04T01:26:08.182Z,19.8
2023-03-04T01:31:45.762Z,19.8
2023-03-04T01:37:23.050Z,19.8
2023-03-04T01:42:44.890Z,19.8
2023-03-04T01:48:10.020Z,19.8
2023-03-04T01:53:31.995Z,19.8
2023-03-04T01:58:53.595Z,19.8
2023-03-04T02:04:15.688Z,19.8
2023-03-04T02:09:37.890Z,19.8
2023-03-04T02:15:15.935Z,19.8
2023-03-04T02:20:22.620Z,19.8
2023-03-04T02:25:44.358Z,19.8
2023-03-04T02:31:21.624Z,19.8
2023-03-04T02:36:58.985Z,19.8
2023-03-04T02:42:36.269Z,19.8
2023-03-04T02:48:12.993Z,19.8
2023-03-04T02:53:49.855Z,19.8
2023-03-04T02:59:27.255Z,19.8
2023-03-04T03:04:49.363Z,19.8
2023-03-04T03:10:27.231Z,19.7
2023-03-04T03:16:06.463Z,19.8
2023-03-04T03:21:28.070Z,19.8
2023-03-04T03:27:05.190Z,19.8
2023-03-04T03:32:42.660Z,19.8
2023-03-04T03:38:20.281Z,19.8
2023-03-04T03:43:57.656Z,19.8
2023-03-04T03:49:20.006Z,19.8
2023-03-04T03:54:41.414Z,19.7
2023-03-04T04:00:19.881Z,19.7
2023-03-04T04:05:58.120Z,19.7
2023-03-04T04:11:35.254Z,19.7
2023-03-04T04:17:12.520Z,19.7
2023-03-04T04:22:37.987Z,19.7
2023-03-04T04:28:15.455Z,19.7
2023-03-04T04:33:37.253Z,19.7
2023-03-04T04:38:58.925Z,19.7
2023-03-04T04:44:36.783Z,19.7
2023-03-04T04:49:59.195Z,19.7
2023-03-04T04:55:52.350Z,19.7
2023-03-04T05:01:28.995Z,19.7
2023-03-04T05:07:07.121Z,19.7
2023-03-04T05:12:43.999Z,19.7
2023-03-04T05:18:36.791Z,19.7
2023-03-04T05:24:13.382Z,19.6
2023-03-04T05:29:50.601Z,19.7
2023-03-04T05:35:29.026Z,19.7
2023-03-04T05:41:06.380Z,19.7
2023-03-04T05:46:43.382Z,19.7
2023-03-04T05:52:35.598Z,19.7
2023-03-04T05:58:28.560Z,19.7
2023-03-04T06:04:21.265Z,19.7
2023-03-04T06:09:58.424Z,19.7
2023-03-04T06:15:51.287Z,19.6
2023-03-04T06:21:43.489Z,19.7
2023-03-04T06:27:35.826Z,19.6
2023-03-04T06:33:15.851Z,19.6
2023-03-04T06:39:08.932Z,19.6
2023-03-04T06:45:02.392Z,19.6
2023-03-04T06:50:39.887Z,19.6
2023-03-04T06:56:32.761Z,19.6
2023-03-04T07:02:24.649Z,19.6
2023-03-04T07:08:16.658Z,19.6
2023-03-04T07:14:09.660Z,19.6
2023-03-04T07:20:02.832Z,19.6
2023-03-04T07:25:55.405Z,19.6
2023-03-04T07:31:47.906Z,19.6
2023-03-04T07:37:40.185Z,19.6
2023-03-04T07:43:33.036Z,19.6
2023-03-04T07:49:26.243Z,19.6
2023-03-04T07:55:21.503Z,19.6
2023-03-04T08:01:13.495Z,19.6
2023-03-04T08:07:06.181Z,19.6
2023-03-04T08:12:58.554Z,19.7
2023-03-04T08:18:51.846Z,19.6
2023-03-04T08:24:30.848Z,19.6
2023-03-04T08:30:07.269Z,19.6
2023-03-04T08:36:03.561Z,19.6
2023-03-04T08:41:43.587Z,19.6
2023-03-04T08:47:36.504Z,19.6
2023-03-04T08:53:30.044Z,19.6
2023-03-04T08:59:22.777Z,19.6
2023-03-04T09:05:14.617Z,19.6
2023-03-04T09:11:07.378Z,19.6
2023-03-04T09:17:09.708Z,19.6
2023-03-04T09:23:03.284Z,19.6
2023-03-04T09:28:56.641Z,19.6
2023-03-04T09:34:49.141Z,19.6
2023-03-04T09:40:41.560Z,24.4
2023-03-04T09:46:19.563Z,24
2023-03-04T09:52:14.897Z,23.6
2023-03-04T09:58:11.815Z,23.1
2023-03-04T10:04:05.555Z,22.8
2023-03-04T10:09:58.211Z,22.6
2023-03-04T10:15:50.699Z,25.4
2023-03-04T10:21:44.432Z,25.8
2023-03-04T10:27:39.513Z,25.9
2023-03-04T10:33:17.469Z,26
2023-03-04T10:39:09.960Z,26.5
2023-03-04T10:45:02.883Z,27.1
2023-03-04T10:50:55.995Z,27.9
2023-03-04T10:56:48.180Z,28.4
2023-03-04T11:02:27.857Z,28.3
2023-03-04T11:08:30.363Z,28.1
2023-03-04T11:14:22.945Z,28.4
2023-03-04T11:20:14.890Z,29
2023-03-04T11:26:23.687Z,29.4
2023-03-04T11:32:16.535Z,29.6
2023-03-04T11:38:10.126Z,29.7
2023-03-04T11:44:03.490Z,29.7
2023-03-04T11:50:13.304Z,29.6
2023-03-04T11:56:06.461Z,29.8
2023-03-04T12:02:00.014Z,30
2023-03-04T12:07:53.933Z,30.1
2023-03-04T12:13:32.545Z,30.5
2023-03-04T12:19:26.572Z,30.9
2023-03-04T12:25:19.627Z,31.3
2023-03-04T12:30:57.683Z,31
2023-03-04T12:36:55.068Z,30.8
2023-03-04T12:42:32.699Z,30.5
2023-03-04T12:48:09.818Z,30.3
2023-03-04T12:54:04.602Z,30
2023-03-04T12:59:57.811Z,29.6
2023-03-04T13:05:35.999Z,29.3
2023-03-04T13:11:13.789Z,28.9
2023-03-04T13:17:10.672Z,28.7
2023-03-04T13:22:48.694Z,28.6
2023-03-04T13:28:43.362Z,28.6
2023-03-04T13:34:38.823Z,28.4
2023-03-04T13:40:34.251Z,28.4
2023-03-04T13:46:12.113Z,28.2
2023-03-04T13:52:18.198Z,27.9
2023-03-04T13:58:14.959Z,27.7
2023-03-04T14:04:08.460Z,27.6
2023-03-04T14:09:47.083Z,27.4
2023-03-04T14:15:39.417Z,27.3
2023-03-04T14:21:33.235Z,27
2023-03-04T14:27:26.202Z,26.8
2023-03-04T14:33:13.842Z,26.7
2023-03-04T14:39:05.908Z,26.6
2023-03-04T14:44:57.957Z,26.4
2023-03-04T14:51:03.363Z,26.4
2023-03-04T14:56:55.446Z,26.2
2023-03-04T15:02:47.780Z,26
2023-03-04T15:08:41.973Z,25.9
2023-03-04T15:14:34.427Z,25.7
2023-03-04T15:20:27.625Z,25.5
2023-03-04T15:26:04.889Z,25.3
2023-03-04T15:31:58.889Z,25
2023-03-04T15:37:51.569Z,24.8
2023-03-04T15:43:43.836Z,24.5
2023-03-04T15:49:23.709Z,24.3
2023-03-04T15:55:02.676Z,23.8
2023-03-04T16:00:54.623Z,23.4
2023-03-04T16:06:47.699Z,23.1
2023-03-04T16:12:40.112Z,22.8
2023-03-04T16:18:32.636Z,22.5
2023-03-04T16:24:25.026Z,22.4
2023-03-04T16:30:17.756Z,22.2
2023-03-04T16:35:57.481Z,22
2023-03-04T16:41:49.937Z,21.9
2023-03-04T16:47:28.030Z,21.9
2023-03-04T16:53:21.904Z,21.8
2023-03-04T16:59:14.628Z,21.7
2023-03-04T17:05:10.112Z,21.6
2023-03-04T17:11:02.865Z,21.6
2023-03-04T17:16:24.457Z,21.5
2023-03-04T17:22:16.286Z,21.5
2023-03-04T17:28:09.007Z,21.4
2023-03-04T17:33:46.286Z,21.4
2023-03-04T17:39:38.911Z,21.4
2023-03-04T17:45:15.887Z,21.4
2023-03-04T17:50:53.037Z,21.3
2023-03-04T17:56:44.830Z,21.3
2023-03-04T18:02:21.811Z,21.3
2023-03-04T18:08:14.269Z,21.2
2023-03-04T18:13:51.776Z,21.2
2023-03-04T18:36:31.542Z,21.1
2023-03-04T18:42:08.745Z,21.1
2023-03-04T18:48:01.821Z,21.1
2023-03-04T18:53:54.339Z,21.1
2023-03-04T18:59:46.757Z,21.1
2023-03-04T19:05:39.630Z,21.1
2023-03-04T19:11:31.366Z,21.1
2023-03-04T19:16:54.816Z,21.1
2023-03-04T19:22:32.249Z,21.1
2023-03-04T19:28:09.158Z,21.1
2023-03-04T19:34:01.773Z,21.1
2023-03-04T19:39:38.603Z,21.1
2023-03-04T19:44:45.180Z,21.1
2023-03-04T19:50:38.165Z,21.1
2023-03-04T19:55:59.766Z,21.1
2023-03-04T20:46:12.446Z,21.1
2023-03-04T20:52:04.629Z,21.1
2023-03-04T21:02:32.271Z,21.1
2023-03-04T21:08:25.255Z,21.1
2023-03-04T21:14:18.426Z,21.1
2023-03-04T21:20:11.175Z,21
2023-03-04T21:26:07.557Z,21
2023-03-04T21:32:07.096Z,21
2023-03-04T21:37:52.072Z,21
2023-03-04T21:43:29.019Z,21
2023-03-04T21:49:05.141Z,20.9
2023-03-04T21:54:44.749Z,20.9
2023-03-04T22:00:23.118Z,20.9
2023-03-04T22:05:59.979Z,20.9
2023-03-04T22:11:52.296Z,20.9
2023-03-04T22:17:11.087Z,20.9
2023-03-04T22:22:48.384Z,20.9
2023-03-04T22:28:09.742Z,20.9
2023-03-04T22:33:49.285Z,20.9
2023-03-04T22:38:54.982Z,20.8
2023-03-04T22:44:16.656Z,20.8
2023-03-04T22:49:23.168Z,20.8
2023-03-04T22:55:15.899Z,20.8
2023-03-04T23:00:53.038Z,20.8
2023-03-04T23:06:45.412Z,20.8
2023-03-04T23:12:38.086Z,20.8
2023-03-04T23:18:30.885Z,20.8
2023-03-04T23:24:23.449Z,20.8
2023-03-04T23:30:01.424Z,20.8
2023-03-04T23:35:54.180Z,20.8
2023-03-04T23:41:46.796Z,20.8
2023-03-04T23:47:39.701Z,20.8
2023-03-04T23:53:16.883Z,20.7
2023-03-04T23:59:09.561Z,20.7
